KABE/ABE METAR and TAF weather

Enter ICAO airport designator
Station Type Date Time Source
KABE METAR 2022/12/10 00:51 UTC NOAA

KABE 100051Z 07003KT 10SM CLR 01/M05 A3028 RMK AO2 SLP260 T00061050


Station Type Date Time Source
KABE Decoded METAR 2022/12/10 00:51 UTC NOAA

LEHIGH VALLEY INTERNATIONAL AIRPORT, PA, United States (KABE) 40-39N 075-27W 114M
Dec 09, 2022 - 07:51 PM EST / 2022.12.10 0051 UTC
Wind: from the ENE (070 degrees) at 3 MPH (3 KT):0
Visibility: 10 mile(s):0
Sky conditions: clear
Temperature: 33.1 F (0.6 C)
Dew Point: 23.0 F (-5.0 C)
Relative Humidity: 66%
Pressure (altimeter): 30.28 in. Hg (1025 hPa)
ob: KABE 100051Z 07003KT 10SM CLR 01/M05 A3028 RMK AO2 SLP260 T00061050
cycle: 1

Station Type Date Time Source
KABE TAF 2022/12/09 18:27 UTC NOAA

TAF KABE 091724Z 0918/1018 01008KT P6SM SKC
FM092300 VRB03KT P6SM SKC
FM101400 06006KT P6SM SCT250

Example: see airport list